createdAt,value
2023-01-02T00:04:05.569Z,15.70
2023-01-02T00:06:38.661Z,14.90
2023-01-02T00:09:09.018Z,15.00
2023-01-02T00:24:00.719Z,15.00
2023-01-02T01:03:39.672Z,15.00
2023-01-02T01:06:09.943Z,14.90
2023-01-02T01:08:39.619Z,14.90
2023-01-02T01:11:14.002Z,15.10
2023-01-02T01:16:13.984Z,15.10
2023-01-02T01:21:17.155Z,15.00
2023-01-02T01:26:14.936Z,15.00
2023-01-02T01:31:14.729Z,15.30
2023-01-02T01:33:44.249Z,15.30
2023-01-02T01:36:21.595Z,15.30
2023-01-02T01:38:50.114Z,15.20
2023-01-02T01:41:22.806Z,15.20
2023-01-02T01:43:55.336Z,15.30
2023-01-02T01:46:40.637Z,15.30
2023-01-02T01:49:28.859Z,15.30
2023-01-02T01:52:08.149Z,15.50
2023-01-02T01:54:45.360Z,15.20
2023-01-02T01:57:23.243Z,15.10
2023-01-02T02:39:55.115Z,15.00
2023-01-02T02:42:53.593Z,15.00
2023-01-02T02:45:50.224Z,14.80
2023-01-02T02:48:32.688Z,15.00
2023-01-02T02:51:12.347Z,15.00
2023-01-02T02:53:51.473Z,14.90
2023-01-02T02:56:22.015Z,14.90
2023-01-02T03:01:20.409Z,14.90
2023-01-02T03:09:23.381Z,15.00
2023-01-02T03:12:27.786Z,15.10
2023-01-02T03:15:17.532Z,15.30
2023-01-02T03:18:12.881Z,15.60
2023-01-02T03:20:46.603Z,15.00
2023-01-02T03:23:25.041Z,15.30
2023-01-02T03:28:24.686Z,14.90
2023-01-02T03:30:57.383Z,14.90
2023-01-02T03:33:33.644Z,14.90
2023-01-02T03:36:07.552Z,14.90
2023-01-02T03:38:45.166Z,15.00
2023-01-02T03:41:21.870Z,14.90
2023-01-02T03:43:57.017Z,15.10
2023-01-02T03:47:14.568Z,15.10
2023-01-02T03:49:48.917Z,15.10
2023-01-02T03:54:55.518Z,15.10
2023-01-02T03:57:26.789Z,15.00
2023-01-02T04:00:06.409Z,15.10
2023-01-02T04:03:14.228Z,15.10
2023-01-02T04:05:51.542Z,15.10
2023-01-02T04:09:01.735Z,15.10
2023-01-02T04:11:31.705Z,15.10
2023-01-02T04:14:05.164Z,15.10
2023-01-02T04:16:36.914Z,15.00
2023-01-02T04:19:30.170Z,15.00
2023-01-02T04:22:04.866Z,14.90
2023-01-02T04:24:38.873Z,14.80
2023-01-02T04:27:15.068Z,14.90
2023-01-02T04:34:49.644Z,14.70
2023-01-02T04:37:33.613Z,14.60
2023-01-02T04:40:13.916Z,14.70
2023-01-02T04:50:09.508Z,14.20
2023-01-02T04:55:09.847Z,14.70
2023-01-02T04:57:39.052Z,14.70
2023-01-02T05:00:09.862Z,14.50
2023-01-02T05:02:41.065Z,14.80
2023-01-02T05:05:10.574Z,15.10
2023-01-02T05:07:40.323Z,14.70
2023-01-02T05:10:09.550Z,14.70
2023-01-02T05:12:40.998Z,14.70
2023-01-02T05:15:11.149Z,14.30
2023-01-02T05:17:42.550Z,14.60
2023-01-02T05:20:14.653Z,14.70
2023-01-02T05:23:02.485Z,14.60
2023-01-02T05:25:35.685Z,14.70
2023-01-02T05:28:05.149Z,14.60
2023-01-02T05:43:00.248Z,14.60
2023-01-02T06:05:17.692Z,14.70
2023-01-02T06:12:42.647Z,14.90
2023-01-02T06:15:11.224Z,14.90
2023-01-02T06:20:08.556Z,14.60
2023-01-02T07:02:14.053Z,14.90
2023-01-02T07:49:14.199Z,14.10
2023-01-02T07:54:10.696Z,15.40
2023-01-02T08:18:57.087Z,14.60
2023-01-02T08:21:27.426Z,14.50
2023-01-02T08:23:55.615Z,14.60
2023-01-02T08:41:41.353Z,14.60
2023-01-02T08:49:12.272Z,14.60
2023-01-02T08:59:10.459Z,14.60
2023-01-02T09:04:12.471Z,14.70
2023-01-02T09:09:13.546Z,14.70
2023-01-02T09:11:50.541Z,14.70
2023-01-02T09:14:21.906Z,14.70
2023-01-02T09:16:51.790Z,14.70
2023-01-02T09:19:20.783Z,14.70
2023-01-02T09:41:53.176Z,14.90
2023-01-02T09:44:53.813Z,15.20
2023-01-02T09:47:29.582Z,14.90
2023-01-02T09:50:03.695Z,14.90
2023-01-02T09:52:40.219Z,14.90
2023-01-02T09:55:45.863Z,15.00
2023-01-02T09:58:41.148Z,15.10
2023-01-02T10:01:22.833Z,15.10
2023-01-02T10:04:05.646Z,14.70
2023-01-02T10:06:55.436Z,15.20
2023-01-02T10:09:58.193Z,15.20
2023-01-02T10:17:30.350Z,15.40
2023-01-02T10:20:33.536Z,15.40
2023-01-02T10:23:08.692Z,15.40
2023-01-02T10:25:53.137Z,15.40
2023-01-02T10:28:47.543Z,15.40
2023-01-02T10:31:27.165Z,15.70
2023-01-02T10:34:01.446Z,15.40
2023-01-02T10:36:39.474Z,15.50
2023-01-02T10:39:22.107Z,15.60
2023-01-02T10:41:54.495Z,15.60
2023-01-02T10:47:38.802Z,15.70
2023-01-02T10:50:16.309Z,15.60
2023-01-02T10:57:51.191Z,15.60
2023-01-02T11:00:27.732Z,16.20
2023-01-02T11:03:13.409Z,15.70
2023-01-02T11:05:52.370Z,15.00
2023-01-02T11:08:24.718Z,15.70
2023-01-02T11:13:23.300Z,15.80
2023-01-02T11:16:01.454Z,15.90
2023-01-02T11:18:35.661Z,15.90
2023-01-02T11:21:06.907Z,16.10
2023-01-02T11:23:43.080Z,16.20
2023-01-02T11:26:22.139Z,16.70
2023-01-02T11:28:55.583Z,16.30
2023-01-02T11:31:24.508Z,17.10
2023-01-02T11:38:57.685Z,16.80
2023-01-02T11:41:56.696Z,16.50
2023-01-02T11:44:50.071Z,16.50
2023-01-02T11:47:18.832Z,16.50
2023-01-02T11:49:50.159Z,16.50
2023-01-02T11:52:25.255Z,16.40
2023-01-02T11:55:02.055Z,16.40
2023-01-02T12:00:10.608Z,16.50
2023-01-02T12:02:43.915Z,16.50
2023-01-02T12:05:17.544Z,16.40
2023-01-02T12:07:55.697Z,16.60
2023-01-02T12:10:57.311Z,16.60
2023-01-02T12:13:52.590Z,16.60
2023-01-02T12:16:34.231Z,16.60
2023-01-02T12:19:46.673Z,16.80
2023-01-02T12:23:07.436Z,16.80
2023-01-02T12:26:09.564Z,17.40
2023-01-02T12:32:06.612Z,16.90
2023-01-02T12:35:36.004Z,16.90
2023-01-02T12:38:10.161Z,16.90
2023-01-02T12:42:01.587Z,16.80
2023-01-02T12:44:52.425Z,16.90
2023-01-02T12:47:41.255Z,16.80
2023-01-02T12:50:37.270Z,16.70
2023-01-02T12:56:22.037Z,16.70
2023-01-02T12:59:09.253Z,16.80
2023-01-02T13:01:55.794Z,16.60
2023-01-02T13:04:36.280Z,16.60
2023-01-02T13:09:44.820Z,16.50
2023-01-02T13:12:21.317Z,15.90
2023-01-02T13:15:22.440Z,16.50
2023-01-02T13:18:15.559Z,16.90
2023-01-02T13:20:49.593Z,16.60
2023-01-02T13:23:39.757Z,16.50
2023-01-02T13:26:30.213Z,16.40
2023-01-02T13:29:10.519Z,16.40
2023-01-02T13:31:47.409Z,16.50
2023-01-02T13:34:29.979Z,16.40
2023-01-02T13:37:09.465Z,15.90
2023-01-02T13:39:43.638Z,16.50
2023-01-02T13:42:41.884Z,16.50
2023-01-02T13:45:19.393Z,16.30
2023-01-02T13:47:54.833Z,16.50
2023-01-02T13:50:43.718Z,16.40
2023-01-02T13:55:43.185Z,17.20
2023-01-02T13:58:14.878Z,16.40
2023-01-02T14:00:55.201Z,16.40
2023-01-02T14:06:28.753Z,16.30
2023-01-02T14:09:05.790Z,16.30
2023-01-02T14:11:55.339Z,15.80
2023-01-02T14:14:40.353Z,16.40
2023-01-02T14:17:17.740Z,16.30
2023-01-02T14:24:53.615Z,16.20
2023-01-02T14:27:32.138Z,16.30
2023-01-02T14:30:13.729Z,16.20
2023-01-02T14:32:46.833Z,16.10
2023-01-02T14:40:37.273Z,16.10
2023-01-02T14:43:30.239Z,16.00
2023-01-02T14:49:25.317Z,16.40
2023-01-02T14:52:08.289Z,16.10
2023-01-02T14:55:00.569Z,16.00
2023-01-02T14:57:35.875Z,15.60
2023-01-02T15:00:14.261Z,15.90
2023-01-02T15:02:47.655Z,15.90
2023-01-02T15:05:32.191Z,15.80
2023-01-02T15:08:02.345Z,15.80
2023-01-02T15:13:07.474Z,15.80
2023-01-02T15:15:42.528Z,15.80
2023-01-02T15:18:31.686Z,15.70
2023-01-02T15:21:15.402Z,16.40
2023-01-02T15:23:48.653Z,15.70
2023-01-02T15:26:35.063Z,15.30
2023-01-02T15:29:13.777Z,15.70
2023-01-02T15:31:42.860Z,16.20
2023-01-02T15:34:11.721Z,15.70
2023-01-02T15:36:42.483Z,15.70
2023-01-02T15:39:27.952Z,15.60
2023-01-02T15:41:57.372Z,15.60
2023-01-02T15:44:46.520Z,15.50
2023-01-02T15:47:15.884Z,15.50
2023-01-02T15:49:46.337Z,15.50
2023-01-02T15:52:27.558Z,15.50
2023-01-02T15:54:56.609Z,15.40
2023-01-02T15:57:33.007Z,15.40
2023-01-02T16:02:37.663Z,15.30
2023-01-02T16:05:11.636Z,15.60
2023-01-02T16:10:15.327Z,15.20
2023-01-02T16:12:43.531Z,14.60
2023-01-02T16:15:11.942Z,14.60
2023-01-02T16:17:41.136Z,15.20
2023-01-02T16:20:15.413Z,15.10
2023-01-02T16:22:52.088Z,15.10
2023-01-02T16:25:27.026Z,15.10
2023-01-02T16:28:36.324Z,15.10
2023-01-02T16:31:14.262Z,15.00
2023-01-02T16:36:15.660Z,14.90
2023-01-02T16:38:55.812Z,14.30
2023-01-02T16:41:34.805Z,14.80
2023-01-02T16:44:04.741Z,14.70
2023-01-02T16:46:33.143Z,14.50
2023-01-02T17:11:26.379Z,14.60
2023-01-02T17:28:47.759Z,13.80
2023-01-02T17:33:50.713Z,13.70
2023-01-02T18:01:48.246Z,12.60
2023-01-02T18:14:24.726Z,12.30
2023-01-02T18:19:33.171Z,12.30
2023-01-02T18:24:33.687Z,12.20
2023-01-02T18:27:32.786Z,12.20
2023-01-02T18:30:12.590Z,12.20
2023-01-02T18:32:43.358Z,12.10
2023-01-02T18:38:36.293Z,12.10
2023-01-02T18:41:27.002Z,12.10
2023-01-02T18:44:18.155Z,12.10
2023-01-02T18:49:44.041Z,12.00
2023-01-02T18:54:48.078Z,12.00
2023-01-02T18:57:23.367Z,11.90
2023-01-02T18:59:53.280Z,12.30
2023-01-02T19:02:39.493Z,11.70
2023-01-02T19:05:34.195Z,11.50
2023-01-02T19:10:39.249Z,11.70
2023-01-02T19:13:27.741Z,11.10
2023-01-02T19:16:22.109Z,11.20
2023-01-02T19:18:54.049Z,12.10
2023-01-02T19:21:35.841Z,11.30
2023-01-02T19:24:11.382Z,11.50
2023-01-02T19:26:56.015Z,11.50
2023-01-02T19:29:25.200Z,11.40
2023-01-02T19:31:58.496Z,11.50
2023-01-02T19:34:46.184Z,11.40
2023-01-02T19:39:56.911Z,11.30
2023-01-02T19:42:28.759Z,11.70
2023-01-02T19:45:00.352Z,11.30
2023-01-02T19:47:34.552Z,11.20
2023-01-02T19:50:03.372Z,10.90
2023-01-02T19:59:57.316Z,11.10
2023-01-02T20:02:26.880Z,10.90
2023-01-02T20:04:56.475Z,11.40
2023-01-02T20:07:26.767Z,11.50
2023-01-02T20:09:55.108Z,11.20
2023-01-02T20:15:10.796Z,11.30
2023-01-02T20:17:40.381Z,11.00
2023-01-02T20:20:13.263Z,11.20
2023-01-02T20:25:17.406Z,11.20
2023-01-02T20:42:45.817Z,11.70
2023-01-02T20:50:20.076Z,11.20
2023-01-02T20:57:56.349Z,11.20
2023-01-02T21:02:53.289Z,11.20
2023-01-02T21:18:35.792Z,11.20
2023-01-02T21:21:09.105Z,11.10
2023-01-02T21:23:39.402Z,11.00
2023-01-02T21:26:10.831Z,10.90
2023-01-02T21:28:39.939Z,11.20
2023-01-02T21:31:08.599Z,10.40
2023-01-02T21:36:08.791Z,10.70
2023-01-02T21:43:52.609Z,10.50
2023-01-02T21:46:21.011Z,10.10
2023-01-02T21:58:43.417Z,10.40
2023-01-02T22:03:40.017Z,10.20
2023-01-02T22:06:08.234Z,9.40
2023-01-02T22:13:50.707Z,10.60
2023-01-02T22:26:14.651Z,10.60
2023-01-02T22:31:12.873Z,10.60
2023-01-02T22:33:42.344Z,10.10
2023-01-02T22:36:11.289Z,10.30
2023-01-02T22:38:55.108Z,9.80
2023-01-02T22:44:01.973Z,10.30
2023-01-02T22:46:37.534Z,10.00
2023-01-02T22:49:05.711Z,10.10
2023-01-02T22:54:25.097Z,10.40
2023-01-02T22:56:53.358Z,9.80
2023-01-02T22:59:21.385Z,10.70
2023-01-02T23:01:50.738Z,10.70
2023-01-02T23:04:23.102Z,10.20
2023-01-02T23:07:22.921Z,10.20
2023-01-02T23:14:38.938Z,10.10
2023-01-02T23:17:24.738Z,10.40
2023-01-02T23:19:52.804Z,9.70
2023-01-02T23:22:20.811Z,9.90
2023-01-02T23:27:17.602Z,9.70
2023-01-02T23:29:45.796Z,9.70
2023-01-02T23:44:38.423Z,10.30
2023-01-02T23:49:41.585Z,10.10
2023-01-02T23:52:10.193Z,9.70
2023-01-02T23:54:38.197Z,9.80
2023-01-02T23:59:34.625Z,9.80
